DAOO Airport Information

Runway Information
Runway 07 Length 10039 ft width 148 ft
Elevation 295 ft Threshold 0 ft Heading 67
Runway 25 Length 10039 ft Width 148 ft
Elevation 295 ft Threshold 196 ft Heading 247
Airport Frequencies
Type APP Name ORAN APP Frequency 128.2 MHZ
Type TWR Name ORAN TWR Frequency 118.1 MHZ
Airport Navaids
Type VOR-DME Name Oran Frequency 114000 KHZ
Airport Weather Information & NOTAM
ADDS - METARS form results

(0311 UTC 17 November 2018)
Data provider http://aviationweather.gov/metar/data/
 
METAR text: DAOO 170300Z 02003KT 4000 BR FEW013 15/15 Q1013
Conditions at: DAOO (ORAN/ES SENIA , DZ) observed 0300 UTC 17 November 2018
Temperature: 15.0°C (59°F)
Dewpoint: 15.0°C (59°F) [RH = 100%]
Pressure (altimeter): 29.91 inches Hg (1013.0 mb)
Winds: from the NNE (20 degrees) at 3 MPH (3 knots; 1.5 m/s)
Visibility: 2.49 miles (4.01 km)
Ceiling: at least 12,000 feet AGL
Clouds: few clouds at 1300 feet AGL
Weather: BR  (mist)

METAR text: DAOO 170230Z 00000KT 3000 BR FEW013 16/15 Q1013
Conditions at: DAOO (ORAN/ES SENIA , DZ) observed 0230 UTC 17 November 2018
Temperature: 16.0°C (61°F)
Dewpoint: 15.0°C (59°F) [RH = 94%]
Pressure (altimeter): 29.91 inches Hg (1013.0 mb)
Winds: calm
Visibility: 1.86 miles (2.99 km)
Ceiling: at least 12,000 feet AGL
Clouds: few clouds at 1300 feet AGL
Weather: BR  (mist)

Forecast for: DAOO (ORAN/ES SENIA , DZ)
Text: TAF DAOO 162300Z 1700/1724 VRB02KT 3000 BR FEW013
Forecast period: 0000 to 1200 UTC 17 November 2018
Forecast type: FROM: standard forecast or significant change
Winds: variable direction winds at 2 MPH (2 knots; 1.0 m/s)
Visibility: 1.86 miles (2.99 km)
Ceiling: at least 12,000 feet AGL
Clouds: few clouds at 1300 feet AGL
Weather: BR  (mist)
Text: PROB30
Forecast period: 0500 to 0800 UTC 17 November 2018
Forecast type: TEMPORARY: The following changes expected for less than half the time period
Visibility: 0.12 miles (0.19 km)
Ceiling: 1000 feet AGL
Clouds: broken clouds at 1000 feet AGL
Weather: FG  (fog)
Text: TEMPO 1705/1708 0200 FG BKN010
Forecast period: 1200 to 2000 UTC 17 November 2018
Forecast type: BECOMING: Conditions expected to become as follows by 1500 UTC 17 November 2018
Winds: from the ENE (60 degrees) at 14 MPH (12 knots; 6.2 m/s)
Visibility: 4 miles (7 km)
Ceiling: at least 12,000 feet AGL
Clouds: scattered clouds at 2300 feet AGL
Weather: BR  (mist)
Text: BECMG 1712/1715 06012KT 7000 SCT023
Forecast period: 2000 UTC 17 November 2018 to 0000 UTC 18 November 2018
Forecast type: BECOMING: Conditions expected to become as follows by 2300 UTC 17 November 2018
Winds: variable direction winds at 2 MPH (2 knots; 1.0 m/s)
Visibility: 4 miles (7 km)
Ceiling: at least 12,000 feet AGL
Clouds: scattered clouds at 2300 feet AGL
Weather: BR  (mist)